createdAt,value
2018-04-11T00:00:11.082Z,66.1
2018-04-11T00:10:18.167Z,66.6
2018-04-11T00:15:13.644Z,66.4
2018-04-11T00:20:03.348Z,66.4
2018-04-11T00:25:02.952Z,66.4
2018-04-11T00:30:28.835Z,66.7
2018-04-11T00:35:13.540Z,66.5
2018-04-11T00:40:28.938Z,66.7
2018-04-11T00:45:03.501Z,66.7
2018-04-11T00:50:08.316Z,67.1
2018-04-11T00:55:02.837Z,67.1
2018-04-11T01:00:05.969Z,67.3
2018-04-11T01:05:10.640Z,67.4
2018-04-11T01:10:05.266Z,67.6
2018-04-11T01:15:03.418Z,67.5
2018-04-11T01:20:05.612Z,68.4
2018-04-11T01:25:02.784Z,68.3
2018-04-11T01:30:05.726Z,69
2018-04-11T01:35:06.011Z,69.4
2018-04-11T01:40:20.465Z,69.7
2018-04-11T01:45:08.178Z,70
2018-04-11T01:50:16.106Z,70.1
2018-04-11T01:55:07.849Z,70.3
2018-04-11T02:00:10.726Z,70.4
2018-04-11T02:05:18.591Z,70.5
2018-04-11T02:10:31.128Z,70.5
2018-04-11T02:15:03.392Z,70.5
2018-04-11T02:20:02.795Z,70.8
2018-04-11T02:25:05.605Z,71.4
2018-04-11T02:30:07.924Z,71.5
2018-04-11T02:35:18.354Z,71.5
2018-04-11T02:45:28.610Z,71.2
2018-04-11T02:50:15.529Z,71.1
2018-04-11T02:55:05.746Z,58.6
2018-04-11T03:00:08.083Z,71.1
2018-04-11T03:05:03.372Z,71.1
2018-04-11T03:10:08.187Z,71.3
2018-04-11T03:15:05.872Z,71.3
2018-04-11T03:20:25.997Z,71.1
2018-04-11T03:25:10.910Z,71
2018-04-11T03:30:10.839Z,71.1
2018-04-11T03:35:23.711Z,71.2
2018-04-11T03:40:03.494Z,71.2
2018-04-11T03:45:10.322Z,71.6
2018-04-11T03:50:07.710Z,71.6
2018-04-11T03:55:20.673Z,71.7
2018-04-11T04:00:05.495Z,72
2018-04-11T04:05:18.403Z,72.2
2018-04-11T04:10:05.666Z,72.5
2018-04-11T04:15:26.170Z,72.5
2018-04-11T04:20:03.521Z,72.6
2018-04-11T04:25:10.399Z,72.9
2018-04-11T04:30:22.985Z,73.4
2018-04-11T04:35:25.748Z,21.7
2018-04-11T04:40:36.377Z,73.6
2018-04-11T04:50:05.353Z,73.5
2018-04-11T04:55:08.107Z,73.9
2018-04-11T05:00:05.817Z,74.3
2018-04-11T05:05:03.492Z,74.3
2018-04-11T05:10:08.125Z,74.2
2018-04-11T05:15:15.907Z,73.8
2018-04-11T05:20:05.678Z,74.6
2018-04-11T05:25:03.350Z,74.6
2018-04-11T05:30:10.129Z,76
2018-04-11T05:35:05.296Z,77.4
2018-04-11T05:40:18.074Z,79.6
2018-04-11T05:45:05.587Z,81.1
2018-04-11T05:50:02.774Z,81.1
2018-04-11T05:55:05.480Z,82
2018-04-11T06:00:02.708Z,81.9
2018-04-11T06:05:05.399Z,82.1
2018-04-11T06:10:05.520Z,83
2018-04-11T06:15:03.135Z,82.9
2018-04-11T06:20:03.452Z,82.9
2018-04-11T06:25:02.666Z,82.7
2018-04-11T06:30:05.870Z,82.2
2018-04-11T06:35:03.602Z,82.2
2018-04-11T06:40:05.945Z,81.4
2018-04-11T06:45:25.358Z,81.1
2018-04-11T06:50:02.584Z,81.1
2018-04-11T06:55:05.290Z,81.3
2018-04-11T07:00:26.239Z,81.6
2018-04-11T07:05:03.398Z,81.5
2018-04-11T07:10:05.583Z,81.1
2018-04-11T07:15:03.195Z,81.1
2018-04-11T07:20:05.983Z,80.2
2018-04-11T07:25:07.725Z,80
2018-04-11T07:30:02.900Z,80
2018-04-11T07:35:08.190Z,77.7
2018-04-11T07:40:10.612Z,77
2018-04-11T07:45:03.038Z,77
2018-04-11T07:50:13.396Z,75.7
2018-04-11T07:55:05.949Z,75
2018-04-11T08:00:03.115Z,75
2018-04-11T08:05:18.469Z,73.6
2018-04-11T08:10:03.205Z,73.6
2018-04-11T08:15:03.238Z,72.8
2018-04-11T08:20:05.191Z,71.7
2018-04-11T08:25:10.443Z,70.7
2018-04-11T08:30:12.787Z,69.5
2018-04-11T08:35:02.846Z,69.5
2018-04-11T08:40:06.011Z,68.4
2018-04-11T08:45:10.250Z,68.2
2018-04-11T08:50:11.133Z,67.6
2018-04-11T08:55:27.991Z,67.3
2018-04-11T09:00:03.206Z,67.4
2018-04-11T09:05:03.412Z,67.1
2018-04-11T09:10:05.537Z,65.9
2018-04-11T09:15:05.811Z,65.2
2018-04-11T09:20:08.145Z,64.2
2018-04-11T09:25:08.355Z,63.9
2018-04-11T09:30:05.412Z,62.8
2018-04-11T09:35:10.708Z,62.2
2018-04-11T09:40:38.744Z,62.8
2018-04-11T09:45:02.915Z,62.7
2018-04-11T09:50:05.652Z,61.9
2018-04-11T09:55:03.356Z,61.8
2018-04-11T10:00:05.081Z,59.7
2018-04-11T10:05:02.766Z,59.7
2018-04-11T10:15:11.021Z,58.9
2018-04-11T10:20:03.282Z,58.9
2018-04-11T10:25:02.527Z,58
2018-04-11T10:30:25.504Z,57.7
2018-04-11T10:35:02.673Z,57.7
2018-04-11T10:40:03.340Z,57.2
2018-04-11T10:45:15.207Z,56.3
2018-04-11T10:50:05.964Z,56.6
2018-04-11T10:55:02.638Z,56.6
2018-04-11T11:00:23.056Z,56
2018-04-11T11:05:05.627Z,55.4
2018-04-11T11:10:23.491Z,55.1
2018-04-11T11:15:05.280Z,55
2018-04-11T11:20:10.143Z,54.6
2018-04-11T11:25:35.664Z,53.7
2018-04-11T11:30:18.180Z,54.2
2018-04-11T11:35:08.330Z,54.8
2018-04-11T11:40:15.586Z,55.6
2018-04-11T11:45:03.236Z,55.6
2018-04-11T11:50:18.694Z,54.2
2018-04-11T11:55:05.230Z,53.6
2018-04-11T12:00:03.441Z,53.6
2018-04-11T12:05:02.830Z,52.5
2018-04-11T12:10:08.560Z,53.6
2018-04-11T12:15:05.235Z,52.8
2018-04-11T12:20:03.549Z,52.7
2018-04-11T12:25:02.849Z,52.2
2018-04-11T12:30:20.804Z,53
2018-04-11T12:35:28.687Z,53.4
2018-04-11T12:40:05.838Z,53.7
2018-04-11T12:45:10.186Z,54.1
2018-04-11T12:50:23.614Z,54.2
2018-04-11T12:55:20.511Z,54.7
2018-04-11T13:00:02.786Z,54.7
2018-04-11T13:05:05.566Z,55.3
2018-04-11T13:10:03.206Z,55.3
2018-04-11T13:15:03.543Z,54.9
2018-04-11T13:20:03.050Z,54.8
2018-04-11T13:25:08.381Z,54.6
2018-04-11T13:30:22.871Z,54.2
2018-04-11T13:35:03.048Z,54.2
2018-04-11T13:40:05.293Z,52.4
2018-04-11T13:45:03.012Z,52.5
2018-04-11T13:50:15.920Z,50
2018-04-11T13:55:02.529Z,50
2018-04-11T14:00:12.975Z,50.2
2018-04-11T14:05:10.656Z,51.3
2018-04-11T14:10:03.223Z,51.3
2018-04-11T14:15:11.035Z,52.6
2018-04-11T14:20:03.207Z,52.6
2018-04-11T14:25:03.381Z,53.3
2018-04-11T14:30:05.029Z,51.8
2018-04-11T14:35:05.203Z,52.6
2018-04-11T14:40:02.733Z,52.6
2018-04-11T14:45:18.104Z,51
2018-04-11T14:50:08.292Z,49.8
2018-04-11T14:55:03.429Z,49.8
2018-04-11T15:00:02.677Z,49
2018-04-11T15:05:02.772Z,47.2
2018-04-11T15:10:03.362Z,46.2
2018-04-11T15:15:02.545Z,46.5
2018-04-11T15:20:07.774Z,48.4
2018-04-11T15:25:02.914Z,48.4
2018-04-11T15:30:10.650Z,48.5
2018-04-11T15:35:03.240Z,48.6
2018-04-11T15:40:07.798Z,48.4
2018-04-11T15:45:02.931Z,48.4
2018-04-11T15:50:08.140Z,47.7
2018-04-11T15:55:05.825Z,47.9
2018-04-11T16:00:03.047Z,47.9
2018-04-11T16:05:03.269Z,48.6
2018-04-11T16:10:02.773Z,48
2018-04-11T16:15:02.956Z,48.6
2018-04-11T16:20:05.717Z,50.6
2018-04-11T16:25:15.996Z,50.9
2018-04-11T16:30:03.095Z,51
2018-04-11T16:35:13.423Z,52
2018-04-11T16:40:02.939Z,52
2018-04-11T16:45:05.629Z,53.3
2018-04-11T16:50:07.781Z,53.6
2018-04-11T16:55:05.554Z,54.5
2018-04-11T17:00:05.210Z,55.1
2018-04-11T17:05:02.876Z,55.1
2018-04-11T17:10:03.408Z,55.9
2018-04-11T17:15:05.078Z,57.6
2018-04-11T17:20:03.249Z,57.5
2018-04-11T17:25:03.405Z,57.9
2018-04-11T17:30:05.030Z,58.3
2018-04-11T17:35:12.759Z,59.2
2018-04-11T17:40:08.332Z,59.6
2018-04-11T17:45:03.418Z,59.6
2018-04-11T17:50:05.022Z,60.9
2018-04-11T17:55:07.736Z,61.4
2018-04-11T18:00:02.816Z,61.3
2018-04-11T18:05:08.023Z,62.1
2018-04-11T18:10:02.582Z,62.1
2018-04-11T18:15:10.290Z,62.7
2018-04-11T18:20:03.446Z,62.7
2018-04-11T18:25:15.189Z,63.5
2018-04-11T18:30:05.799Z,64.1
2018-04-11T18:35:05.967Z,64.4
2018-04-11T18:40:05.962Z,64.7
2018-04-11T18:45:05.058Z,64.8
2018-04-11T18:50:03.125Z,64.8
2018-04-11T18:55:10.820Z,66
2018-04-11T19:00:02.904Z,66
2018-04-11T19:05:13.155Z,66.8
2018-04-11T19:10:02.623Z,66.8
2018-04-11T19:15:02.830Z,67.3
2018-04-11T19:20:02.982Z,67.6
2018-04-11T19:25:08.278Z,68.2
2018-04-11T19:30:03.390Z,68.2
2018-04-11T19:35:07.563Z,69
2018-04-11T19:40:02.997Z,69
2018-04-11T19:45:05.714Z,69.9
2018-04-11T19:50:02.977Z,69.9
2018-04-11T19:55:07.962Z,70.6
2018-04-11T20:00:03.040Z,70.6
2018-04-11T20:05:08.216Z,71.3
2018-04-11T20:10:02.763Z,71.3
2018-04-11T20:15:10.477Z,71.9
2018-04-11T20:20:02.730Z,72
2018-04-11T20:25:07.895Z,72.6
2018-04-11T20:30:02.972Z,72.7
2018-04-11T20:35:05.625Z,72.7
2018-04-11T20:40:10.692Z,73
2018-04-11T20:45:03.192Z,73
2018-04-11T20:50:03.304Z,73.2
2018-04-11T20:55:05.934Z,73.4
2018-04-11T21:00:03.148Z,73.4
2018-04-11T21:05:13.353Z,73.8
2018-04-11T21:10:10.405Z,73.9
2018-04-11T21:15:05.472Z,74
2018-04-11T21:20:10.200Z,74.1
2018-04-11T21:25:05.250Z,74.4
2018-04-11T21:30:05.917Z,74.4
2018-04-11T21:35:02.440Z,74.4
2018-04-11T21:40:02.873Z,74.4
2018-04-11T21:45:08.092Z,74.6
2018-04-11T21:50:05.694Z,74.7
2018-04-11T21:55:10.869Z,75
2018-04-11T22:00:02.971Z,75
2018-04-11T22:05:05.621Z,75.2
2018-04-11T22:10:05.637Z,75.2
2018-04-11T22:15:10.839Z,75.4
2018-04-11T22:20:02.954Z,75.4
2018-04-11T22:25:03.205Z,24.3
2018-04-11T22:30:03.283Z,75.6
2018-04-11T22:35:03.383Z,75.6
2018-04-11T22:40:02.937Z,75.8
2018-04-11T22:45:05.659Z,75.8
2018-04-11T22:50:02.807Z,75.8
2018-04-11T22:55:05.471Z,76.1
2018-04-11T23:00:02.531Z,76.1
2018-04-11T23:05:02.670Z,76.1
2018-04-11T23:10:03.173Z,76.1
2018-04-11T23:15:08.320Z,76
2018-04-11T23:20:03.441Z,76
2018-04-11T23:25:20.284Z,76.1
2018-04-11T23:30:03.361Z,76.1
2018-04-11T23:35:02.452Z,76.1
2018-04-11T23:40:02.923Z,76.5
2018-04-11T23:45:05.553Z,76.8
2018-04-11T23:50:02.640Z,76.8
2018-04-11T23:55:02.789Z,76.7
